createdAt,value
2022-12-27T00:00:24.992Z,82.89
2022-12-27T00:02:54.846Z,83.73
2022-12-27T00:05:24.378Z,83.46
2022-12-27T00:07:54.122Z,83.86
2022-12-27T00:10:23.720Z,83.81
2022-12-27T00:12:54.034Z,84.18
2022-12-27T00:15:24.253Z,83.87
2022-12-27T00:17:53.745Z,83.32
2022-12-27T00:20:23.466Z,83.23
2022-12-27T00:22:53.203Z,83.49
2022-12-27T00:25:22.969Z,83.89
2022-12-27T00:27:53.341Z,84.13
2022-12-27T00:30:23.204Z,84.59
2022-12-27T00:32:52.984Z,84.95
2022-12-27T00:35:22.726Z,85.39
2022-12-27T00:37:52.756Z,85.34
2022-12-27T00:40:22.477Z,84.78
2022-12-27T00:42:52.297Z,84.13
2022-12-27T00:45:21.927Z,85.02
2022-12-27T00:47:51.857Z,85.73
2022-12-27T00:50:21.706Z,85.31
2022-12-27T00:52:51.728Z,84.97
2022-12-27T00:55:21.506Z,84.99
2022-12-27T00:57:51.235Z,85.19
2022-12-27T01:00:20.991Z,85.90
2022-12-27T01:02:51.039Z,85.69
2022-12-27T01:05:21.895Z,85.46
2022-12-27T01:07:51.942Z,86.69
2022-12-27T01:10:21.765Z,86.22
2022-12-27T01:12:51.511Z,86.22
2022-12-27T01:15:21.071Z,85.74
2022-12-27T01:17:50.846Z,85.85
2022-12-27T01:20:20.688Z,86.90
2022-12-27T01:22:50.422Z,86.07
2022-12-27T01:25:20.025Z,86.19
2022-12-27T01:27:49.774Z,86.39
2022-12-27T01:30:19.278Z,86.51
2022-12-27T01:32:49.008Z,85.85
2022-12-27T01:35:18.529Z,85.95
2022-12-27T01:37:48.260Z,86.25
2022-12-27T01:40:19.397Z,86.21
2022-12-27T01:42:55.700Z,86.25
2022-12-27T01:45:30.616Z,86.10
2022-12-27T01:48:21.152Z,86.96
2022-12-27T01:50:54.549Z,86.32
2022-12-27T01:53:29.964Z,85.95
2022-12-27T01:56:02.705Z,86.27
2022-12-27T01:58:50.137Z,86.04
2022-12-27T02:01:22.851Z,86.59
2022-12-27T02:04:01.372Z,86.13
2022-12-27T02:06:33.399Z,85.61
2022-12-27T02:09:06.163Z,86.00
2022-12-27T02:11:53.246Z,85.66
2022-12-27T02:14:32.018Z,85.93
2022-12-27T02:17:04.572Z,85.82
2022-12-27T02:19:48.788Z,85.85
2022-12-27T02:22:35.096Z,86.31
2022-12-27T02:25:34.730Z,86.41
2022-12-27T02:28:32.887Z,86.93
2022-12-27T02:31:10.824Z,87.28
2022-12-27T02:33:43.618Z,86.70
2022-12-27T02:36:16.285Z,87.36
2022-12-27T02:38:49.042Z,87.20
2022-12-27T02:41:37.781Z,87.04
2022-12-27T02:44:24.961Z,87.09
2022-12-27T02:47:12.483Z,86.72
2022-12-27T02:50:01.640Z,88.43
2022-12-27T02:53:05.806Z,88.44
2022-12-27T02:55:38.894Z,88.88
2022-12-27T02:58:25.136Z,90.95
2022-12-27T03:01:18.625Z,90.95
2022-12-27T03:04:00.525Z,90.56
2022-12-27T03:06:47.908Z,89.56
2022-12-27T03:09:54.906Z,90.37
2022-12-27T03:12:57.249Z,90.37
2022-12-27T03:15:50.103Z,90.13
2022-12-27T03:18:22.764Z,90.13
2022-12-27T03:21:11.207Z,89.64
2022-12-27T03:24:01.253Z,88.75
2022-12-27T03:26:34.149Z,89.57
2022-12-27T03:29:22.015Z,89.32
2022-12-27T03:32:15.148Z,89.93
2022-12-27T03:34:48.362Z,89.22
2022-12-27T03:37:38.561Z,89.77
2022-12-27T03:40:20.915Z,89.48
2022-12-27T03:43:14.062Z,88.64
2022-12-27T03:46:10.274Z,88.24
2022-12-27T03:48:57.797Z,88.39
2022-12-27T03:51:30.686Z,88.40
2022-12-27T03:56:44.115Z,89.20
2022-12-27T03:59:14.285Z,89.26
2022-12-27T04:01:44.124Z,89.04
2022-12-27T04:04:13.648Z,89.20
2022-12-27T04:06:43.458Z,89.26
2022-12-27T04:09:31.038Z,89.89
2022-12-27T04:12:18.401Z,89.95
2022-12-27T04:15:05.645Z,89.65
2022-12-27T04:17:53.186Z,91.21
2022-12-27T04:20:40.706Z,90.30
2022-12-27T04:23:28.429Z,90.98
2022-12-27T04:26:16.027Z,90.98
2022-12-27T04:29:03.120Z,90.61
2022-12-27T04:31:50.501Z,89.98
2022-12-27T04:34:38.114Z,89.65
2022-12-27T04:37:09.305Z,90.41
2022-12-27T04:39:38.754Z,90.25
2022-12-27T04:42:29.096Z,89.91
2022-12-27T04:45:16.558Z,89.45
2022-12-27T04:48:04.140Z,89.16
2022-12-27T04:50:52.225Z,89.23
2022-12-27T04:53:40.403Z,88.69
2022-12-27T04:56:11.459Z,89.30
2022-12-27T04:58:42.831Z,89.30
2022-12-27T05:01:23.233Z,89.94
2022-12-27T05:03:54.594Z,89.94
2022-12-27T05:06:24.608Z,90.28
2022-12-27T05:09:11.938Z,90.39
2022-12-27T05:12:01.329Z,90.90
2022-12-27T05:14:30.768Z,90.94
2022-12-27T05:17:00.488Z,90.03
2022-12-27T05:19:29.941Z,90.71
2022-12-27T05:22:17.026Z,90.21
2022-12-27T05:25:04.507Z,90.33
2022-12-27T05:27:34.364Z,91.18
2022-12-27T05:30:06.926Z,91.18
2022-12-27T05:32:36.684Z,90.39
2022-12-27T05:35:07.783Z,90.85
2022-12-27T05:37:37.505Z,90.78
2022-12-27T05:40:09.732Z,89.37
2022-12-27T05:42:39.477Z,89.46
2022-12-27T05:45:09.557Z,89.61
2022-12-27T05:47:39.384Z,89.27
2022-12-27T05:50:09.826Z,89.58
2022-12-27T05:52:41.340Z,89.48
2022-12-27T05:55:11.139Z,89.13
2022-12-27T05:57:41.000Z,89.13
2022-12-27T06:00:13.160Z,89.51
2022-12-27T06:02:42.879Z,90.14
2022-12-27T06:05:12.493Z,90.09
2022-12-27T06:07:42.285Z,90.17
2022-12-27T06:10:12.034Z,90.10
2022-12-27T06:12:41.815Z,90.49
2022-12-27T06:15:12.055Z,90.41
2022-12-27T06:17:43.400Z,90.87
2022-12-27T06:20:12.931Z,91.29
2022-12-27T06:22:42.795Z,91.17
2022-12-27T06:25:14.524Z,91.55
2022-12-27T06:27:44.669Z,91.69
2022-12-27T06:30:15.369Z,91.19
2022-12-27T06:32:45.249Z,90.97
2022-12-27T06:35:16.051Z,90.06
2022-12-27T06:37:45.893Z,90.83
2022-12-27T06:40:15.741Z,90.48
2022-12-27T06:42:45.570Z,90.40
2022-12-27T06:45:15.506Z,90.40
2022-12-27T06:47:45.600Z,89.95
2022-12-27T06:50:17.128Z,90.90
2022-12-27T06:52:46.895Z,90.88
2022-12-27T06:55:16.689Z,90.25
2022-12-27T06:57:46.470Z,91.08
2022-12-27T07:00:17.567Z,91.17
2022-12-27T07:02:47.591Z,90.73
2022-12-27T07:05:17.226Z,90.58
2022-12-27T07:07:47.067Z,90.56
2022-12-27T07:10:18.411Z,90.80
2022-12-27T07:12:48.455Z,90.46
2022-12-27T07:15:18.036Z,90.39
2022-12-27T07:17:47.793Z,90.84
2022-12-27T07:20:17.773Z,90.01
2022-12-27T07:22:47.622Z,90.01
2022-12-27T07:25:17.753Z,90.50
2022-12-27T07:27:47.244Z,90.28
2022-12-27T07:30:18.214Z,90.60
2022-12-27T07:32:48.044Z,90.94
2022-12-27T07:35:17.775Z,91.71
2022-12-27T07:37:47.519Z,91.44
2022-12-27T07:40:17.958Z,91.13
2022-12-27T07:42:48.240Z,91.12
2022-12-27T07:45:18.018Z,91.73
2022-12-27T07:47:47.920Z,91.22
2022-12-27T07:50:17.520Z,90.69
2022-12-27T07:52:48.352Z,91.19
2022-12-27T07:55:17.913Z,90.69
2022-12-27T07:57:47.402Z,91.09
2022-12-27T08:00:18.610Z,90.97
2022-12-27T08:02:48.803Z,92.36
2022-12-27T08:05:24.377Z,92.11
2022-12-27T08:07:49.945Z,91.01
2022-12-27T08:10:20.042Z,92.28
2022-12-27T08:12:49.850Z,91.48
2022-12-27T08:15:19.513Z,92.26
2022-12-27T08:17:49.281Z,92.62
2022-12-27T08:20:19.019Z,92.25
2022-12-27T08:22:48.752Z,92.25
2022-12-27T08:25:18.436Z,91.57
2022-12-27T08:27:48.265Z,92.01
2022-12-27T08:30:17.855Z,92.53
2022-12-27T08:32:47.927Z,91.62
2022-12-27T08:35:51.120Z,90.74
2022-12-27T08:37:49.780Z,91.10
2022-12-27T08:40:20.096Z,91.40
2022-12-27T08:42:50.108Z,91.28
2022-12-27T08:45:19.925Z,90.77
2022-12-27T08:47:49.659Z,91.90
2022-12-27T08:50:19.268Z,91.31
2022-12-27T08:55:38.012Z,91.65
2022-12-27T08:58:15.997Z,91.83
2022-12-27T09:00:44.075Z,91.61
2022-12-27T09:03:13.894Z,91.40
2022-12-27T09:05:43.656Z,91.45
2022-12-27T09:08:13.546Z,91.52
2022-12-27T09:10:43.722Z,90.80
2022-12-27T09:13:13.559Z,89.91
2022-12-27T09:15:44.796Z,89.93
2022-12-27T09:18:14.617Z,89.02
2022-12-27T09:20:44.763Z,90.30
2022-12-27T09:23:14.473Z,89.88
2022-12-27T09:25:44.835Z,90.10
2022-12-27T09:28:14.646Z,90.90
2022-12-27T09:30:45.772Z,90.50
2022-12-27T09:33:15.568Z,90.67
2022-12-27T09:35:45.622Z,90.67
2022-12-27T09:38:15.258Z,90.63
2022-12-27T09:40:59.462Z,89.33
2022-12-27T09:43:44.270Z,90.17
2022-12-27T09:46:19.563Z,90.31
2022-12-27T09:48:52.311Z,91.08
2022-12-27T09:51:27.750Z,91.08
2022-12-27T09:54:15.635Z,89.37
2022-12-27T09:57:18.478Z,89.03
2022-12-27T09:59:35.179Z,89.03
2022-12-27T10:02:18.613Z,88.44
2022-12-27T10:07:32.139Z,88.15
2022-12-27T10:10:11.064Z,87.82
2022-12-27T10:12:58.927Z,87.23
2022-12-27T10:15:57.034Z,88.02
2022-12-27T10:18:44.157Z,88.78
2022-12-27T10:21:19.535Z,88.36
2022-12-27T10:23:52.609Z,89.33
2022-12-27T10:26:22.604Z,88.47
2022-12-27T10:28:57.205Z,88.50
2022-12-27T10:31:28.135Z,87.55
2022-12-27T10:33:58.711Z,87.63
2022-12-27T10:36:30.605Z,87.58
2022-12-27T10:39:03.386Z,87.84
2022-12-27T10:41:58.421Z,87.27
2022-12-27T10:44:29.165Z,86.26
2022-12-27T10:47:00.130Z,86.02
2022-12-27T10:49:32.038Z,86.02
2022-12-27T10:52:13.748Z,86.59
2022-12-27T10:54:54.009Z,86.55
2022-12-27T10:57:29.982Z,87.14
2022-12-27T11:00:16.623Z,85.77
2022-12-27T11:02:54.401Z,85.51
2022-12-27T11:05:27.504Z,84.13
2022-12-27T11:07:57.347Z,84.27
2022-12-27T11:10:31.367Z,83.75
2022-12-27T11:13:06.589Z,84.44
2022-12-27T11:15:44.197Z,83.36
2022-12-27T11:18:19.243Z,83.43
2022-12-27T11:20:57.705Z,83.31
2022-12-27T11:23:30.219Z,83.81
2022-12-27T11:26:02.292Z,82.81
2022-12-27T11:28:41.011Z,81.61
2022-12-27T11:31:16.486Z,80.02
2022-12-27T11:33:49.707Z,80.51
2022-12-27T11:36:40.803Z,81.06
2022-12-27T11:39:13.445Z,80.99
2022-12-27T11:41:52.094Z,79.32
2022-12-27T11:44:30.150Z,79.77
2022-12-27T11:47:05.653Z,80.04
2022-12-27T11:49:38.185Z,80.70
2022-12-27T11:52:33.717Z,80.64
2022-12-27T11:55:25.894Z,80.46
2022-12-27T11:58:07.106Z,79.69
2022-12-27T12:00:48.247Z,80.26
2022-12-27T12:03:47.307Z,79.88
2022-12-27T12:06:34.572Z,79.88
2022-12-27T12:09:08.844Z,79.83
2022-12-27T12:12:02.276Z,78.50
2022-12-27T12:15:03.277Z,78.12
2022-12-27T12:20:50.719Z,77.37
2022-12-27T12:23:36.181Z,77.24
2022-12-27T12:26:16.888Z,77.56
2022-12-27T12:29:00.149Z,77.93
2022-12-27T12:32:04.582Z,76.75
2022-12-27T12:34:40.111Z,77.86
2022-12-27T12:37:29.140Z,78.74
2022-12-27T12:40:18.147Z,78.33
2022-12-27T12:43:13.290Z,78.85
2022-12-27T12:45:49.107Z,78.96
2022-12-27T12:48:30.510Z,79.90
2022-12-27T12:51:26.339Z,80.47
2022-12-27T12:54:14.014Z,80.86
2022-12-27T12:57:04.466Z,79.91
2022-12-27T13:00:06.072Z,79.51
2022-12-27T13:02:42.040Z,78.84
2022-12-27T13:05:21.017Z,78.07
2022-12-27T13:08:12.488Z,79.14
2022-12-27T13:11:03.027Z,78.96
2022-12-27T13:14:07.647Z,80.32
2022-12-27T13:16:54.590Z,80.17
2022-12-27T13:23:05.200Z,77.76
2022-12-27T13:25:52.675Z,76.69
2022-12-27T13:28:49.006Z,74.73
2022-12-27T13:31:46.009Z,76.00
2022-12-27T13:34:18.487Z,75.89
2022-12-27T13:37:12.622Z,76.66
2022-12-27T13:39:54.515Z,77.18
2022-12-27T13:42:53.846Z,78.63
2022-12-27T13:45:41.661Z,78.77
2022-12-27T13:48:23.624Z,78.49
2022-12-27T13:50:56.383Z,78.89
2022-12-27T13:53:31.828Z,79.07
2022-12-27T13:59:18.860Z,79.90
2022-12-27T14:01:57.953Z,79.75
2022-12-27T14:04:33.288Z,79.60
2022-12-27T14:10:13.689Z,80.16
2022-12-27T14:13:00.808Z,80.52
2022-12-27T14:15:36.461Z,80.57
2022-12-27T14:18:32.723Z,80.51
2022-12-27T14:21:14.119Z,80.87
2022-12-27T14:23:55.767Z,80.85
2022-12-27T14:26:49.155Z,81.25
2022-12-27T14:29:33.542Z,80.05
2022-12-27T14:32:26.773Z,80.74
2022-12-27T14:35:19.116Z,81.07
2022-12-27T14:38:03.951Z,80.80
2022-12-27T14:41:03.654Z,81.07
2022-12-27T14:43:36.466Z,81.45
2022-12-27T14:46:25.638Z,81.87
2022-12-27T14:48:58.447Z,81.54
2022-12-27T14:52:00.886Z,81.24
2022-12-27T14:54:27.396Z,82.05
2022-12-27T14:57:34.651Z,82.21
2022-12-27T15:00:17.333Z,81.95
2022-12-27T15:03:02.128Z,82.51
2022-12-27T15:05:43.884Z,82.02
2022-12-27T15:08:25.503Z,82.41
2022-12-27T15:11:04.143Z,82.83
2022-12-27T15:13:54.844Z,82.83
2022-12-27T15:16:39.277Z,82.63
2022-12-27T15:19:21.142Z,82.46
2022-12-27T15:22:08.521Z,82.27
2022-12-27T15:24:47.382Z,82.94
2022-12-27T15:27:31.659Z,83.18
2022-12-27T15:30:12.875Z,82.74
2022-12-27T15:33:03.608Z,83.14
2022-12-27T15:35:47.834Z,82.01
2022-12-27T15:38:20.473Z,83.04
2022-12-27T15:40:53.231Z,82.90
2022-12-27T15:43:37.574Z,82.62
2022-12-27T15:46:35.826Z,82.48
2022-12-27T15:49:16.619Z,82.95
2022-12-27T15:51:49.475Z,82.97
2022-12-27T15:54:39.814Z,83.17
2022-12-27T15:57:24.820Z,82.83
2022-12-27T16:00:11.646Z,82.69
2022-12-27T16:02:51.098Z,82.70
2022-12-27T16:05:23.943Z,82.70
2022-12-27T16:07:56.763Z,82.79
2022-12-27T16:10:35.549Z,82.36
2022-12-27T16:13:23.736Z,82.07
2022-12-27T16:15:55.547Z,82.56
2022-12-27T16:18:33.652Z,83.31
2022-12-27T16:21:06.142Z,82.97
2022-12-27T16:23:45.034Z,82.19
2022-12-27T16:26:32.613Z,82.35
2022-12-27T16:29:08.445Z,82.92
2022-12-27T16:31:45.577Z,83.01
2022-12-27T16:34:27.522Z,82.89
2022-12-27T16:37:00.453Z,82.53
2022-12-27T16:39:58.712Z,83.01
2022-12-27T16:42:43.196Z,82.88
2022-12-27T16:45:32.372Z,82.93
2022-12-27T16:48:13.527Z,83.27
2022-12-27T16:50:48.878Z,83.30
2022-12-27T16:53:24.064Z,83.21
2022-12-27T16:56:16.310Z,82.31
2022-12-27T16:58:46.304Z,82.46
2022-12-27T17:01:37.308Z,83.07
2022-12-27T17:04:08.582Z,83.59
2022-12-27T17:06:41.736Z,83.82
2022-12-27T17:09:14.557Z,83.57
2022-12-27T17:11:53.115Z,83.24
2022-12-27T17:14:26.498Z,83.56
2022-12-27T17:16:59.871Z,83.03
2022-12-27T17:19:35.316Z,83.00
2022-12-27T17:22:08.386Z,83.13
2022-12-27T17:24:38.282Z,82.98
2022-12-27T17:27:29.170Z,83.00
2022-12-27T17:30:13.661Z,83.47
2022-12-27T17:33:06.920Z,83.47
2022-12-27T17:35:48.566Z,83.03
2022-12-27T17:38:23.930Z,83.91
2022-12-27T17:41:02.288Z,83.21
2022-12-27T17:44:15.270Z,83.31
2022-12-27T17:47:10.310Z,83.11
2022-12-27T17:49:37.771Z,83.29
2022-12-27T17:52:30.455Z,82.99
2022-12-27T17:55:35.878Z,82.51
2022-12-27T17:58:11.893Z,82.73
2022-12-27T18:01:00.423Z,83.05
2022-12-27T18:03:33.222Z,82.65
2022-12-27T18:06:03.368Z,82.58
2022-12-27T18:08:35.931Z,82.58
2022-12-27T18:11:08.661Z,82.83
2022-12-27T18:13:41.701Z,83.02
2022-12-27T18:16:14.719Z,82.85
2022-12-27T18:18:47.474Z,83.59
2022-12-27T18:21:25.959Z,83.00
2022-12-27T18:23:57.603Z,83.81
2022-12-27T18:26:38.751Z,83.48
2022-12-27T18:29:12.256Z,83.48
2022-12-27T18:31:50.189Z,83.22
2022-12-27T18:34:28.710Z,82.28
2022-12-27T18:37:04.062Z,82.64
2022-12-27T18:39:45.554Z,83.40
2022-12-27T18:42:27.581Z,82.48
2022-12-27T18:45:00.498Z,82.97
2022-12-27T18:47:30.362Z,82.85
2022-12-27T18:50:02.617Z,83.15
2022-12-27T18:52:35.892Z,83.11
2022-12-27T18:55:24.053Z,83.03
2022-12-27T18:58:18.199Z,83.05
2022-12-27T19:00:46.111Z,83.53
2022-12-27T19:03:18.376Z,82.93
2022-12-27T19:06:09.241Z,83.17
2022-12-27T19:08:42.074Z,82.99
2022-12-27T19:11:23.632Z,82.91
2022-12-27T19:13:57.694Z,83.22
2022-12-27T19:19:11.848Z,82.50
2022-12-27T19:21:41.660Z,81.83
2022-12-27T19:24:30.393Z,82.17
2022-12-27T19:27:02.811Z,81.68
2022-12-27T19:29:39.378Z,81.46
2022-12-27T19:32:09.284Z,81.52
2022-12-27T19:34:48.311Z,81.61
2022-12-27T19:37:19.253Z,81.67
2022-12-27T19:39:49.830Z,82.09
2022-12-27T19:42:27.888Z,81.11
2022-12-27T19:44:58.088Z,81.11
2022-12-27T19:47:28.497Z,82.15
2022-12-27T19:49:58.288Z,81.95
2022-12-27T19:52:28.495Z,82.36
2022-12-27T19:55:04.071Z,82.02
2022-12-27T19:57:33.623Z,81.71
2022-12-27T20:00:12.141Z,82.08
2022-12-27T20:02:36.509Z,81.29
2022-12-27T20:05:08.288Z,81.29
2022-12-27T20:07:38.590Z,81.33
2022-12-27T20:10:12.944Z,81.38
2022-12-27T20:12:42.852Z,81.20
2022-12-27T20:15:12.664Z,81.50
2022-12-27T20:17:44.799Z,81.70
2022-12-27T20:20:16.139Z,81.15
2022-12-27T20:22:47.374Z,80.82
2022-12-27T20:25:17.289Z,81.02
2022-12-27T20:27:47.098Z,81.61
2022-12-27T20:30:18.768Z,81.73
2022-12-27T20:32:48.894Z,80.60
2022-12-27T20:35:18.801Z,80.60
2022-12-27T20:37:48.885Z,81.14
2022-12-27T20:40:18.812Z,81.21
2022-12-27T20:42:48.918Z,81.15
2022-12-27T20:45:18.588Z,81.18
2022-12-27T20:47:48.927Z,81.42
2022-12-27T20:50:18.806Z,81.60
2022-12-27T20:52:48.576Z,81.30
2022-12-27T20:55:18.407Z,81.21
2022-12-27T20:57:48.214Z,81.04
2022-12-27T21:00:18.194Z,81.05
2022-12-27T21:02:48.542Z,81.44
2022-12-27T21:05:19.297Z,80.16
2022-12-27T21:07:49.004Z,79.97
2022-12-27T21:10:18.748Z,80.02
2022-12-27T21:12:48.198Z,80.87
2022-12-27T21:15:17.878Z,80.69
2022-12-27T21:17:47.634Z,80.88
2022-12-27T21:20:17.285Z,80.46
2022-12-27T21:22:47.068Z,80.26
2022-12-27T21:25:16.824Z,80.92
2022-12-27T21:27:48.489Z,80.85
2022-12-27T21:30:18.269Z,80.90
2022-12-27T21:32:48.991Z,80.63
2022-12-27T21:35:18.618Z,80.59
2022-12-27T21:37:48.699Z,80.80
2022-12-27T21:40:19.222Z,80.48
2022-12-27T21:42:50.210Z,80.96
2022-12-27T21:45:19.724Z,81.18
2022-12-27T21:47:49.816Z,80.75
2022-12-27T21:50:19.383Z,80.80
2022-12-27T21:52:49.092Z,81.01
2022-12-27T21:55:18.842Z,80.56
2022-12-27T21:57:48.583Z,80.56
2022-12-27T22:00:18.303Z,81.17
2022-12-27T22:02:49.989Z,81.17
2022-12-27T22:05:19.762Z,80.92
2022-12-27T22:07:49.777Z,81.14
2022-12-27T22:10:19.849Z,81.16
2022-12-27T22:12:49.557Z,81.02
2022-12-27T22:15:19.057Z,81.18
2022-12-27T22:17:48.817Z,81.33
2022-12-27T22:20:18.680Z,81.59
2022-12-27T22:22:48.487Z,81.42
2022-12-27T22:25:18.278Z,80.99
2022-12-27T22:27:48.069Z,81.27
2022-12-27T22:30:17.940Z,81.70
2022-12-27T22:32:47.694Z,81.54
2022-12-27T22:35:17.672Z,81.63
2022-12-27T22:37:47.184Z,81.59
2022-12-27T22:40:30.992Z,80.96
2022-12-27T22:42:48.512Z,82.01
2022-12-27T22:45:17.993Z,81.45
2022-12-27T22:47:47.832Z,81.48
2022-12-27T22:50:17.596Z,80.88
2022-12-27T22:52:48.609Z,82.20
2022-12-27T22:55:18.659Z,82.29
2022-12-27T22:57:48.734Z,81.59
2022-12-27T23:00:18.281Z,81.92
2022-12-27T23:02:48.287Z,81.89
2022-12-27T23:05:18.113Z,82.02
2022-12-27T23:08:06.271Z,82.15
2022-12-27T23:10:19.126Z,81.47
2022-12-27T23:12:48.924Z,82.45
2022-12-27T23:15:18.561Z,82.75
2022-12-27T23:17:48.602Z,83.47
2022-12-27T23:20:18.500Z,83.47
2022-12-27T23:22:48.228Z,83.78
2022-12-27T23:25:17.731Z,83.70
2022-12-27T23:27:47.232Z,84.22
2022-12-27T23:30:17.150Z,84.06
2022-12-27T23:32:46.941Z,84.17
2022-12-27T23:35:16.764Z,84.35
2022-12-27T23:37:46.892Z,84.61
2022-12-27T23:40:16.748Z,84.59
2022-12-27T23:42:46.243Z,85.10
2022-12-27T23:45:16.110Z,85.54
2022-12-27T23:47:45.861Z,86.12
2022-12-27T23:50:20.834Z,85.54
2022-12-27T23:52:47.001Z,85.94
2022-12-27T23:55:16.810Z,85.63
2022-12-27T23:57:46.546Z,86.57
